Time;durP1;ratioP1;P1;durP2;ratioP2;P2;SDS_P1;SDS_P2;PMS_P1;PMS_P2;Temp;Humidity;BMP_temperature;BMP_pressure;BME280_temperature;BME280_humidity;BME280_pressure;Samples;Min_cycle;Max_cycle;Signal;HPM_P1;HPM_P2
2021/05/03 12:06:33;;;;;;;34.67;11.35;;;;;;;;;;5047534;28;20971;-43
2021/05/03 12:09:17;;;;;;;40.67;19.85;;;;;;;;;;4994817;28;20102;-42
2021/05/03 12:11:58;;;;;;;35.35;13.60;;;;;;;;;;4883682;28;20667;-35
2021/05/03 12:16:05;;;;;;;16.92;9.20;;;;;;;27.14;19.21;95605.25;5007519;27;20679;-44
2021/05/03 12:18:30;;;;;;;501.08;405.80;;;;;;;25.97;18.52;95593.00;4867492;28;20123;-40
2021/05/03 12:20:56;;;;;;;1818.85;780.65;;;;;;;26.60;19.78;95598.88;5073392;28;20607;-50
2021/05/03 12:23:25;;;;;;;91.70;70.93;;;;;;;26.43;18.32;95605.97;5050786;28;20119;-44
2021/05/03 12:27:07;;;;;;;28.98;21.75;;;;;;;31.63;12.71;95540.91;4944478;27;20685;-37
2021/05/03 12:29:33;;;;;;;40.80;27.33;;;;;;;29.54;14.74;95541.81;4946729;28;20109;-37
2021/05/03 12:31:58;;;;;;;33.33;23.95;;;;;;;29.25;14.74;95536.84;5006427;28;20611;-37
2021/05/03 12:34:25;;;;;;;24.10;17.80;;;;;;;29.24;14.84;95533.31;4990816;28;20083;-37
2021/05/03 12:37:13;;;;;;;22.30;13.40;;;;;;;29.36;14.77;95539.88;4960128;28;20110;-39
2021/05/03 12:39:59;;;;;;;23.60;11.43;;;;;;;29.40;14.55;95530.22;4949985;28;20110;-42
2021/05/03 12:42:32;;;;;;;14.77;9.77;;;;;;;29.46;14.53;95525.59;4952938;28;20107;-41
2021/05/03 12:45:00;;;;;;;24.60;16.38;;;;;;;29.50;14.44;95525.47;4977203;28;20491;-41
2021/05/03 12:53:10;;;;;;;97.80;45.58;;;;;;;29.69;14.70;95520.66;4979387;28;20445;-39
2021/05/03 12:56:32;;;;;;;47.72;21.77;;;;;;;29.71;14.56;95518.22;4975826;28;20079;-42
2021/05/03 13:34:53;;;;;;;11.30;3.78;;;;;;;12.52;32.94;95473.16;4995500;27;20474;-71
2021/05/03 13:37:18;;;;;;;4.90;3.63;;;;;;;13.83;29.48;95463.22;5051237;28;20117;-73
2021/05/03 13:39:44;;;;;;;4.22;3.08;;;;;;;14.63;28.06;95467.38;5045243;28;20124;-72
2021/05/03 13:42:10;;;;;;;6.18;3.75;;;;;;;14.63;28.48;95464.69;5049485;28;20179;-71
2021/05/03 13:44:35;;;;;;;5.20;3.15;;;;;;;15.16;28.34;95469.09;5042615;28;20438;-72
2021/05/03 13:47:01;;;;;;;7.88;3.10;;;;;;;15.39;27.30;95460.84;5042224;28;20419;-72
2021/05/03 13:49:26;;;;;;;7.28;3.40;;;;;;;15.52;28.02;95451.34;5048152;28;20219;-71
2021/05/03 13:51:52;;;;;;;14.02;3.65;;;;;;;15.96;25.77;95455.91;5054052;28;20069;-71
2021/05/03 13:54:17;;;;;;;6.18;3.60;;;;;;;15.30;26.73;95439.59;5053570;28;20135;-70
2021/05/03 13:56:43;;;;;;;4.53;2.60;;;;;;;16.01;26.13;95447.47;5045955;28;20093;-71
2021/05/03 13:59:08;;;;;;;6.70;4.00;;;;;;;16.24;25.68;95442.59;5057714;28;20081;-70
2021/05/03 14:01:34;;;;;;;4.20;2.80;;;;;;;16.45;26.31;95448.13;5046446;28;20077;-70
2021/05/03 14:03:59;;;;;;;5.75;2.92;;;;;;;16.58;25.63;95436.97;5047022;28;20444;-70
2021/05/03 14:06:25;;;;;;;5.93;3.58;;;;;;;16.84;26.15;95433.25;5052753;28;20145;-70
2021/05/03 14:08:50;;;;;;;6.00;3.10;;;;;;;16.97;25.85;95435.19;5055534;28;20066;-69
2021/05/03 14:11:16;;;;;;;3.95;2.75;;;;;;;16.79;25.32;95445.19;5054484;28;20100;-70
2021/05/03 14:13:44;;;;;;;4.20;2.75;;;;;;;16.34;24.99;95436.47;5052896;28;20084;-70
2021/05/03 14:16:10;;;;;;;6.68;3.28;;;;;;;16.93;23.75;95433.66;5049559;28;20093;-70
2021/05/03 14:18:35;;;;;;;4.10;2.80;;;;;;;16.84;24.10;95423.22;5055070;28;20074;-71
2021/05/03 14:21:03;;;;;;;4.50;2.80;;;;;;;17.07;24.19;95432.91;5051976;28;20096;-72
2021/05/03 14:23:29;;;;;;;4.07;2.92;;;;;;;17.43;24.45;95420.22;5050635;28;20069;-71
2021/05/03 14:25:55;;;;;;;4.63;3.25;;;;;;;16.57;24.54;95413.84;5026675;28;20088;-71
2021/05/03 14:30:10;;;;;;;2.97;2.67;;;;;;;13.10;24.00;95411.28;4994742;28;20452;-71
2021/05/03 14:34:53;;;;;;;5.70;2.83;;;;;;;10.09;24.10;95405.13;5040684;28;20433;-72
2021/05/03 14:37:18;;;;;;;5.03;2.80;;;;;;;10.31;23.26;95394.97;5037893;28;20762;-71
2021/05/03 14:39:44;;;;;;;4.63;3.10;;;;;;;9.70;23.28;95396.28;5001359;27;20086;-70
2021/05/03 14:42:09;;;;;;;5.05;2.95;;;;;;;8.92;24.26;95394.31;5056736;28;20116;-71
2021/05/03 14:44:34;;;;;;;3.65;2.80;;;;;;;8.44;24.98;95421.53;5059284;28;20065;-71
2021/05/03 14:47:04;;;;;;;4.88;2.97;;;;;;;9.67;24.17;95384.28;5061598;28;20199;-71
2021/05/03 14:52:23;;;;;;;3.80;2.85;;;;;;;11.75;21.58;95376.72;5057343;28;20469;-72
2021/05/03 14:54:52;;;;;;;3.42;2.75;;;;;;;11.38;22.28;95378.16;5061761;28;20147;-72
2021/05/03 14:57:18;;;;;;;3.20;2.75;;;;;;;10.60;22.19;95384.03;5062402;28;20159;-72
2021/05/03 14:59:43;;;;;;;6.68;4.85;;;;;;;9.63;23.05;95363.84;5060113;28;20530;-71
2021/05/03 15:02:09;;;;;;;7.50;2.70;;;;;;;9.80;22.91;95371.19;5062524;27;20139;-71
2021/05/03 15:04:35;;;;;;;6.03;3.03;;;;;;;9.01;23.13;95389.31;5059947;28;20074;-70
2021/05/03 15:07:03;;;;;;;5.32;3.20;;;;;;;8.02;24.49;95366.25;5089255;28;20077;-73
2021/05/03 15:09:37;;;;;;;3.40;3.10;;;;;;;8.32;24.25;95365.22;5022023;28;20120;-76
2021/05/03 15:12:06;;;;;;;2.58;2.38;;;;;;;8.69;24.18;95375.78;5063836;28;20492;-76
2021/05/03 15:22:57;;;;;;;5.13;2.92;;;;;;;8.50;25.70;95366.03;5046519;28;20399;-76
2021/05/03 15:25:25;;;;;;;6.00;3.20;;;;;;;7.73;25.76;95346.47;5053242;28;20086;-77
2021/05/03 15:30:51;;;;;;;3.97;2.90;;;;;;;7.99;25.79;95344.66;5049638;28;20096;-76
2021/05/03 15:33:34;;;;;;;6.13;3.05;;;;;;;8.32;26.22;95338.25;5039529;28;20135;-76
2021/05/03 15:36:03;;;;;;;4.03;2.70;;;;;;;8.96;25.15;95344.56;5043626;28;20085;-77
2021/05/03 15:38:29;;;;;;;4.22;3.13;;;;;;;9.03;25.05;95360.78;5039679;28;20082;-76
2021/05/03 15:40:54;;;;;;;4.82;2.92;;;;;;;9.83;23.99;95340.66;5026140;28;20264;-77
2021/05/03 15:43:22;;;;;;;3.33;3.03;;;;;;;10.82;22.93;95331.34;5029131;28;20152;-77
2021/05/03 15:45:51;;;;;;;3.22;2.92;;;;;;;11.38;23.60;95318.53;5037986;28;20101;-77
2021/05/03 15:48:17;;;;;;;4.00;2.92;;;;;;;11.60;21.57;95323.78;5028885;28;20440;-76
2021/05/03 15:50:53;;;;;;;4.32;2.88;;;;;;;10.74;22.62;95324.44;5021902;28;20222;-76
2021/05/03 15:53:19;;;;;;;5.57;2.85;;;;;;;11.11;23.11;95323.00;5039136;28;20653;-75
2021/05/03 15:55:45;;;;;;;3.53;2.60;;;;;;;11.21;22.47;95319.47;5022794;28;20514;-76
2021/05/03 15:58:13;;;;;;;5.25;4.10;;;;;;;11.02;22.96;95309.16;5040983;28;20183;-76
2021/05/03 16:00:40;;;;;;;3.88;2.53;;;;;;;10.55;22.65;95312.16;5029225;28;20276;-76
2021/05/03 16:03:05;;;;;;;3.45;3.03;;;;;;;9.91;23.16;95309.75;5029805;28;20080;-76
2021/05/03 16:05:31;;;;;;;4.75;3.75;;;;;;;11.08;22.35;95302.91;5035650;28;20081;-76
2021/05/03 16:07:56;;;;;;;2.72;2.33;;;;;;;11.87;21.37;95307.63;5029563;28;20085;-76
2021/05/03 16:10:21;;;;;;;4.32;2.63;;;;;;;12.26;21.15;95307.16;5041089;28;20085;-76
2021/05/03 16:12:47;;;;;;;8.13;2.80;;;;;;;11.45;22.27;95296.03;5045651;28;20187;-76
2021/05/03 16:15:13;;;;;;;3.28;2.30;;;;;;;11.13;22.33;95299.78;5038294;28;20755;-76
2021/05/03 16:17:38;;;;;;;3.97;3.05;;;;;;;9.88;23.05;95299.72;5023160;28;20105;-76
2021/05/03 16:20:04;;;;;;;5.72;3.60;;;;;;;9.57;24.17;95306.72;5052301;28;20414;-76
2021/05/03 16:22:32;;;;;;;5.22;2.95;;;;;;;9.41;24.30;95299.03;5026767;28;20082;-76
2021/05/03 16:24:57;;;;;;;4.70;2.95;;;;;;;9.22;24.15;95283.22;5033782;28;20172;-78
2021/05/03 16:27:22;;;;;;;3.22;2.75;;;;;;;8.40;25.61;95283.19;5042097;28;20619;-76
2021/05/03 16:29:49;;;;;;;5.05;3.00;;;;;;;8.93;24.81;95280.56;5016949;28;20864;-76
2021/05/03 16:32:15;;;;;;;4.38;3.10;;;;;;;8.89;25.13;95271.69;5037898;28;20534;-77
2021/05/03 16:34:40;;;;;;;5.72;3.10;;;;;;;8.37;26.44;95263.16;5037852;28;20118;-77
2021/05/03 16:37:05;;;;;;;3.13;2.63;;;;;;;9.27;24.90;95262.00;5024170;28;20085;-77
2021/05/03 16:39:31;;;;;;;3.85;2.85;;;;;;;9.88;24.07;95263.81;5032499;28;20104;-77
2021/05/03 16:41:57;;;;;;;4.63;2.83;;;;;;;10.26;23.78;95262.09;5023950;28;20074;-77
2021/05/03 16:44:23;;;;;;;5.00;2.95;;;;;;;10.65;23.12;95248.31;5035702;28;20499;-78
2021/05/03 16:46:48;;;;;;;3.65;2.63;;;;;;;11.43;22.95;95250.38;5029605;28;20092;-78
2021/05/03 16:49:14;;;;;;;4.55;2.80;;;;;;;11.20;22.58;95242.84;5034152;28;20081;-78
2021/05/03 16:51:39;;;;;;;6.68;2.60;;;;;;;11.32;22.95;95236.13;5032851;28;20614;-78
2021/05/03 16:54:05;;;;;;;6.32;2.70;;;;;;;11.13;22.67;95242.13;5034250;28;20090;-77
2021/05/03 16:56:31;;;;;;;5.00;2.85;;;;;;;11.05;22.98;95240.66;5039846;28;20103;-78
2021/05/03 16:58:56;;;;;;;2.90;2.38;;;;;;;10.71;23.91;95232.44;5028787;28;20536;-77
2021/05/03 17:01:22;;;;;;;3.65;2.40;;;;;;;10.33;23.72;95235.00;5024882;28;20081;-78
2021/05/03 17:03:47;;;;;;;3.17;2.60;;;;;;;10.02;24.05;95237.50;5015990;28;20742;-77
2021/05/03 17:06:13;;;;;;;3.20;2.95;;;;;;;9.71;24.45;95228.34;5007950;28;20082;-77
2021/05/03 17:08:39;;;;;;;7.53;2.67;;;;;;;9.26;25.04;95228.06;5021451;28;20077;-77
2021/05/03 17:11:04;;;;;;;3.35;2.75;;;;;;;9.00;24.96;95225.81;5017848;28;20612;-76
2021/05/03 17:13:31;;;;;;;4.55;3.05;;;;;;;9.26;25.08;95241.56;5024925;28;20114;-77
2021/05/03 17:15:57;;;;;;;3.88;2.55;;;;;;;8.57;25.83;95219.63;5034368;28;20610;-78
2021/05/03 17:18:22;;;;;;;7.25;3.30;;;;;;;8.60;25.61;95227.72;5028719;28;20088;-78
2021/05/03 17:20:48;;;;;;;5.55;2.67;;;;;;;9.20;25.51;95216.13;5039060;28;20270;-78
2021/05/03 17:23:13;;;;;;;3.42;2.80;;;;;;;8.69;25.64;95205.78;5043791;28;20089;-78
2021/05/03 17:25:39;;;;;;;5.53;3.00;;;;;;;9.24;25.56;95208.03;5026938;28;20115;-78
2021/05/03 17:28:05;;;;;;;4.75;3.00;;;;;;;9.05;25.20;95211.13;5043096;28;20448;-78
2021/05/03 17:30:31;;;;;;;3.83;2.65;;;;;;;9.21;25.26;95211.47;5026948;28;20487;-78
2021/05/03 17:32:58;;;;;;;3.92;2.90;;;;;;;9.73;24.66;95203.63;4956565;28;20148;-78
2021/05/03 17:35:23;;;;;;;3.57;3.00;;;;;;;9.70;25.03;95199.00;5061962;28;20087;-78
2021/05/03 17:37:49;;;;;;;3.97;2.80;;;;;;;9.43;25.74;95196.00;5006863;28;76656;-78
2021/05/03 17:40:14;;;;;;;4.53;2.95;;;;;;;9.33;25.19;95192.19;4977264;28;20102;-78
2021/05/03 17:42:40;;;;;;;6.75;3.30;;;;;;;6.96;28.38;95200.22;5010198;28;20121;-78
2021/05/03 17:45:06;;;;;;;7.20;2.95;;;;;;;8.35;27.13;95195.34;5011690;28;20106;-78
2021/05/03 17:47:31;;;;;;;3.40;2.58;;;;;;;9.46;25.31;95184.44;5010889;28;20433;-78
2021/05/03 17:49:57;;;;;;;11.52;3.35;;;;;;;8.60;26.39;95195.34;5008182;28;20857;-78
2021/05/03 17:52:22;;;;;;;3.70;3.00;;;;;;;8.55;26.47;95184.16;5014919;28;20162;-78
2021/05/03 17:54:49;;;;;;;4.40;2.70;;;;;;;8.42;27.28;95181.06;4993405;28;20109;-78
2021/05/03 17:57:15;;;;;;;3.05;2.75;;;;;;;8.95;26.29;95181.06;5005299;28;20455;-77
2021/05/03 17:59:40;;;;;;;5.82;2.90;;;;;;;9.18;25.46;95185.28;4980397;28;20120;-77
2021/05/03 18:02:06;;;;;;;4.82;2.95;;;;;;;9.14;26.12;95177.19;4996393;28;20110;-77
2021/05/03 18:04:31;;;;;;;6.97;4.55;;;;;;;9.21;25.97;95170.97;4915458;28;20109;-77
2021/05/03 18:06:57;;;;;;;8.50;5.47;;;;;;;9.50;25.89;95163.56;5006128;28;20129;-78
2021/05/03 18:09:22;;;;;;;7.43;5.18;;;;;;;9.77;25.75;95182.75;5022020;28;20109;-78
2021/05/03 18:11:47;;;;;;;6.10;3.67;;;;;;;9.43;25.25;95172.44;5010697;28;20140;-78
2021/05/03 18:14:13;;;;;;;3.55;2.70;;;;;;;8.93;26.23;95163.72;5010224;28;20204;-78
2021/05/03 18:16:39;;;;;;;4.03;3.00;;;;;;;8.96;25.98;95152.91;4975624;28;20101;-78
2021/05/03 18:19:05;;;;;;;8.38;6.07;;;;;;;7.06;28.84;95152.97;5013744;28;20106;-78
2021/05/03 18:21:33;;;;;;;13.63;10.30;;;;;;;7.63;28.59;95139.75;4996957;28;20113;-78
2021/05/03 18:24:02;;;;;;;4.32;3.17;;;;;;;7.77;27.84;95141.72;5000143;28;20570;-78
2021/05/03 18:26:29;;;;;;;4.80;3.28;;;;;;;7.96;27.19;95136.00;4991960;28;20106;-78
2021/05/03 18:28:54;;;;;;;7.22;5.10;;;;;;;7.40;29.04;95126.56;4999106;28;20171;-78
2021/05/03 18:31:21;;;;;;;8.32;3.97;;;;;;;7.56;27.77;95132.41;4966205;28;20161;-78
2021/05/03 18:33:48;;;;;;;5.97;4.03;;;;;;;6.49;29.58;95120.38;5000983;28;20634;-78
2021/05/03 18:36:14;;;;;;;5.15;3.75;;;;;;;6.60;29.66;95121.19;4995633;28;20106;-78
2021/05/03 18:38:46;;;;;;;14.95;9.02;;;;;;;7.31;29.63;95118.84;5012397;28;20157;-78
2021/05/03 18:41:12;;;;;;;4.85;2.60;;;;;;;7.88;27.64;95120.97;5019203;28;20113;-78
2021/05/03 18:43:37;;;;;;;3.80;2.72;;;;;;;7.94;27.67;95111.34;4996160;28;20101;-78
2021/05/03 18:46:03;;;;;;;10.95;7.68;;;;;;;7.42;29.58;95113.53;5015583;28;20124;-78
2021/05/03 18:48:28;;;;;;;8.50;6.30;;;;;;;7.84;28.07;95110.19;4987303;28;20113;-78
2021/05/03 18:50:55;;;;;;;7.50;2.92;;;;;;;7.81;27.76;95118.25;5021441;28;20106;-78
2021/05/03 18:53:21;;;;;;;6.10;4.15;;;;;;;7.65;28.19;95115.16;5017690;28;20114;-78
2021/05/03 18:55:47;;;;;;;4.97;2.90;;;;;;;7.80;28.09;95108.63;4994862;28;20117;-78
2021/05/03 18:58:13;;;;;;;8.13;5.28;;;;;;;7.99;28.59;95110.97;5006982;28;20109;-78
2021/05/03 19:00:38;;;;;;;5.03;3.72;;;;;;;7.72;28.65;95101.69;5018267;28;20122;-78
2021/05/03 19:03:04;;;;;;;12.23;8.85;;;;;;;7.42;29.79;95099.28;5010680;28;20260;-78
2021/05/03 19:05:29;;;;;;;4.50;2.95;;;;;;;7.56;28.96;95094.72;5000545;28;20106;-78
2021/05/03 19:07:55;;;;;;;7.05;5.40;;;;;;;7.69;29.26;95103.22;5012245;28;20109;-78
2021/05/03 19:10:22;;;;;;;10.43;6.70;;;;;;;7.76;29.25;95084.38;5015908;28;20108;-64
2021/05/03 19:12:48;;;;;;;16.25;11.52;;;;;;;7.61;31.57;95088.19;5009415;28;20208;-63
2021/05/03 19:15:13;;;;;;;9.80;6.75;;;;;;;7.76;29.20;95086.31;5012073;28;20105;-63
2021/05/03 19:17:39;;;;;;;5.30;3.95;;;;;;;7.42;30.01;95086.59;5014534;28;20106;-64
2021/05/03 19:20:06;;;;;;;13.57;9.93;;;;;;;7.50;31.39;95079.31;5009420;28;20195;-64
2021/05/03 19:22:32;;;;;;;12.73;9.32;;;;;;;7.61;30.60;95074.72;4991280;28;20580;-65
2021/05/03 19:24:57;;;;;;;9.88;6.72;;;;;;;7.65;30.54;95077.44;5015410;28;20106;-64
2021/05/03 19:27:23;;;;;;;11.18;9.00;;;;;;;7.25;30.89;95071.94;5018730;28;20117;-64
2021/05/03 19:29:49;;;;;;;7.28;5.10;;;;;;;7.56;29.46;95080.44;5009244;28;20989;-64
2021/05/03 19:35:10;;;;;;;9.95;6.68;;;;;;;7.73;29.48;95065.53;4999443;28;20106;-64
2021/05/03 19:37:36;;;;;;;5.88;3.72;;;;;;;6.45;31.01;95073.81;4947103;28;20179;-64
2021/05/03 19:40:03;;;;;;;12.90;9.88;;;;;;;7.11;32.46;95071.88;4930763;28;20546;-64
2021/05/03 19:42:28;;;;;;;12.83;9.17;;;;;;;7.36;32.40;95061.97;5006150;28;20105;-64
2021/05/03 19:44:54;;;;;;;8.98;5.40;;;;;;;7.31;30.22;95067.72;5009993;28;20121;-64
2021/05/03 19:47:21;;;;;;;8.57;6.03;;;;;;;7.48;30.59;95057.34;5011204;28;20175;-64
2021/05/03 20:05:21;;;;;;;6.80;4.82;;;;;;;7.26;30.57;95045.78;4988520;28;20113;-64
2021/05/03 20:07:46;;;;;;;5.80;3.95;;;;;;;7.33;29.79;95037.72;5002094;28;20413;-64
2021/05/03 20:10:14;;;;;;;8.95;6.50;;;;;;;7.50;29.91;95042.38;5007267;28;20149;-64
2021/05/03 20:12:39;;;;;;;8.40;5.53;;;;;;;7.59;30.07;95044.69;5012915;28;20264;-64
2021/05/03 20:15:05;;;;;;;7.72;5.68;;;;;;;7.42;30.18;95038.13;4979316;28;20140;-64
2021/05/03 20:17:32;;;;;;;5.53;2.97;;;;;;;7.48;29.36;95036.63;5009229;28;20106;-64
2021/05/03 20:19:58;;;;;;;7.75;3.72;;;;;;;7.52;29.42;95026.59;5016348;28;20113;-65
2021/05/03 20:22:23;;;;;;;5.38;3.40;;;;;;;7.27;29.69;95023.09;5015907;28;20571;-65
2021/05/03 20:24:49;;;;;;;7.68;4.85;;;;;;;7.53;30.12;95022.75;5011463;28;20483;-64
2021/05/03 20:27:14;;;;;;;11.48;7.82;;;;;;;7.56;30.95;95007.75;5010575;28;20466;-64
2021/05/03 20:29:41;;;;;;;6.40;3.63;;;;;;;7.59;29.31;95020.47;4993975;28;20282;-64
2021/05/03 20:32:06;;;;;;;12.90;9.43;;;;;;;7.03;32.28;95009.19;5016785;28;20402;-64
2021/05/03 20:34:44;;;;;;;12.10;7.22;;;;;;;7.16;31.09;94996.13;4974414;28;20121;-64
2021/05/03 20:42:15;;;;;;;10.95;8.52;;;;;;;7.23;32.42;94992.69;5015222;28;20109;-64
2021/05/03 20:44:40;;;;;;;10.50;5.50;;;;;;;7.47;30.03;94986.56;5011720;28;20579;-64
2021/05/03 20:47:09;;;;;;;10.82;8.38;;;;;;;7.56;31.59;94983.50;4959287;28;20101;-64
2021/05/03 20:49:38;;;;;;;9.80;6.30;;;;;;;7.69;30.88;94976.63;4994796;28;20165;-64
2021/05/03 20:52:04;;;;;;;9.68;6.60;;;;;;;7.52;31.72;94978.13;4986430;28;20572;-64
2021/05/03 20:54:29;;;;;;;7.72;4.35;;;;;;;6.91;30.84;94969.19;4999506;28;20486;-64
2021/05/03 20:56:55;;;;;;;7.45;4.90;;;;;;;7.43;30.30;94969.66;5009534;28;20089;-64
2021/05/03 20:59:20;;;;;;;9.07;7.22;;;;;;;7.42;30.48;94968.13;5012276;28;20105;-64
2021/05/03 21:01:46;;;;;;;5.93;4.63;;;;;;;7.58;30.31;94959.66;5006135;28;20352;-64
2021/05/03 21:04:11;;;;;;;6.00;4.68;;;;;;;7.62;30.10;94963.91;5021448;28;20147;-64
2021/05/03 21:06:37;;;;;;;8.32;6.05;;;;;;;7.54;30.87;94956.97;5010284;28;20117;-64
2021/05/03 21:09:03;;;;;;;12.30;7.63;;;;;;;7.49;30.49;94951.22;5011322;28;20558;-64
2021/05/03 21:11:28;;;;;;;7.63;4.95;;;;;;;7.62;31.08;94947.00;5016196;28;20507;-64
2021/05/03 21:13:54;;;;;;;5.05;4.15;;;;;;;7.44;29.76;94940.81;5015750;28;20421;-64
2021/05/03 21:16:22;;;;;;;6.95;4.35;;;;;;;7.01;30.69;94933.47;5019784;28;20098;-64
2021/05/03 21:18:47;;;;;;;5.60;3.55;;;;;;;7.10;30.50;94924.25;5021154;28;20110;-65
2021/05/03 21:21:13;;;;;;;8.20;5.45;;;;;;;7.31;30.21;94925.03;5018422;28;20093;-65
2021/05/03 21:23:38;;;;;;;4.60;3.28;;;;;;;7.28;30.90;94933.88;5004152;28;20122;-64
2021/05/03 21:26:04;;;;;;;8.38;5.82;;;;;;;7.05;30.93;94925.41;5008452;28;20141;-64
2021/05/03 21:28:29;;;;;;;5.25;3.30;;;;;;;6.99;30.44;94922.31;5003704;28;20137;-64
2021/05/03 21:30:55;;;;;;;4.40;3.35;;;;;;;7.15;30.25;94919.25;5007950;28;20149;-64
2021/05/03 21:33:20;;;;;;;5.53;3.15;;;;;;;7.26;29.82;94911.97;5005806;28;20134;-64
2021/05/03 21:35:46;;;;;;;7.05;5.10;;;;;;;7.12;30.74;94905.81;5005479;28;20106;-64
2021/05/03 21:38:11;;;;;;;4.32;3.25;;;;;;;6.48;32.26;94898.38;5007025;28;20217;-64
2021/05/03 21:40:36;;;;;;;7.80;4.32;;;;;;;6.78;31.05;94901.53;5013142;28;20086;-64
2021/05/03 21:43:02;;;;;;;10.23;7.20;;;;;;;6.66;32.65;94906.47;5017355;28;20110;-64
2021/05/03 21:45:27;;;;;;;3.92;3.13;;;;;;;6.60;30.84;94894.53;5005775;28;20089;-64
2021/05/03 21:47:53;;;;;;;7.78;5.72;;;;;;;6.57;32.53;94892.63;5012243;28;20412;-64
2021/05/03 21:50:18;;;;;;;6.97;4.85;;;;;;;6.43;31.38;94886.03;5018198;28;20179;-64
2021/05/03 21:52:44;;;;;;;9.32;6.90;;;;;;;6.05;33.24;94882.03;5015420;28;20094;-64
2021/05/03 21:55:09;;;;;;;4.20;2.70;;;;;;;6.61;30.74;94872.66;5020743;28;20157;-64
2021/05/03 21:57:35;;;;;;;4.72;3.28;;;;;;;6.71;31.07;94868.47;5017475;28;20442;-64
2021/05/03 22:00:00;;;;;;;8.32;5.63;;;;;;;5.92;33.46;94857.41;5019842;28;20070;-64
2021/05/03 22:02:26;;;;;;;8.35;5.93;;;;;;;6.18;31.87;94852.91;5016982;28;20132;-64
2021/05/03 22:04:51;;;;;;;5.90;4.57;;;;;;;6.12;32.85;94854.41;5014115;28;20074;-64
2021/05/03 22:07:17;;;;;;;9.55;6.25;;;;;;;6.31;32.69;94843.38;5018758;28;20111;-64
2021/05/03 22:09:43;;;;;;;7.70;5.47;;;;;;;6.29;32.69;94844.88;5018269;28;20106;-64
2021/05/03 22:12:09;;;;;;;6.07;3.30;;;;;;;6.49;30.91;94836.16;5021504;28;20531;-64
2021/05/03 22:14:35;;;;;;;9.05;6.38;;;;;;;6.66;31.79;94829.25;5014058;28;20118;-64
2021/05/03 22:17:20;;;;;;;8.60;6.45;;;;;;;6.71;33.14;94828.13;5027881;28;20098;-64
2021/05/03 22:19:55;;;;;;;6.22;3.30;;;;;;;6.00;31.47;94830.59;5010775;28;20114;-64
2021/05/03 22:25:01;;;;;;;7.88;3.47;;;;;;;5.86;31.72;94828.59;5010957;28;20108;-64
2021/05/03 22:27:30;;;;;;;11.23;6.90;;;;;;;6.40;32.99;94811.53;5026337;28;20102;-64
2021/05/03 22:29:56;;;;;;;9.60;7.25;;;;;;;6.59;32.89;94807.72;5015360;28;20232;-64
2021/05/03 22:32:21;;;;;;;5.47;4.07;;;;;;;6.32;32.15;94801.91;5016582;28;20124;-64
2021/05/03 22:34:47;;;;;;;6.53;4.97;;;;;;;6.58;32.72;94792.75;5012421;28;20122;-64
2021/05/03 23:11:46;;;;;;;8.57;4.72;;;;;;;6.49;32.77;94690.97;5018308;28;20323;-64
2021/05/03 23:19:37;;;;;;;6.35;4.78;;;;;;;6.46;32.59;94675.63;5023267;28;20117;-64
2021/05/03 23:22:03;;;;;;;5.88;4.63;;;;;;;6.47;33.43;94671.00;5023894;28;20101;-64
2021/05/03 23:24:28;;;;;;;7.38;5.32;;;;;;;6.60;33.33;94671.38;5022176;28;20086;-64
2021/05/03 23:26:53;;;;;;;7.53;5.38;;;;;;;6.65;33.24;94662.94;5019928;28;20099;-64
2021/05/03 23:29:19;;;;;;;8.57;5.95;;;;;;;6.55;32.32;94661.03;5013282;28;20133;-65
2021/05/03 23:31:44;;;;;;;7.05;3.58;;;;;;;6.14;31.98;94646.03;5012698;28;20502;-65
2021/05/03 23:34:10;;;;;;;6.63;4.53;;;;;;;5.82;34.12;94643.28;5012417;28;20452;-65
2021/05/03 23:36:35;;;;;;;6.53;4.53;;;;;;;6.17;33.18;94634.50;5015949;28;20085;-65
2021/05/03 23:39:01;;;;;;;6.97;4.05;;;;;;;6.41;32.65;94632.19;5014141;28;20110;-64
2021/05/03 23:41:26;;;;;;;4.50;3.45;;;;;;;6.36;32.24;94619.13;5026838;28;20109;-64
2021/05/03 23:43:51;;;;;;;6.80;4.80;;;;;;;5.55;33.68;94610.63;5016052;28;20085;-64
2021/05/03 23:46:17;;;;;;;5.47;3.83;;;;;;;6.17;32.89;94604.94;5017147;28;20121;-64
2021/05/03 23:48:42;;;;;;;6.13;4.57;;;;;;;6.21;33.91;94602.25;5017485;28;20094;-65
2021/05/03 23:51:08;;;;;;;5.80;3.83;;;;;;;6.44;32.79;94596.47;5019204;28;20097;-65
2021/05/03 23:53:33;;;;;;;5.57;3.92;;;;;;;6.40;32.80;94596.47;5018765;28;20094;-64
2021/05/03 23:55:59;;;;;;;7.53;4.05;;;;;;;6.49;32.26;94588.81;5024890;28;20444;-64
2021/05/03 23:58:24;;;;;;;7.78;4.78;;;;;;;6.46;33.23;94575.41;5020101;28;20102;-64
